createdAt,value
2023-05-22T00:00:28.785Z,1003.58
2023-05-22T00:01:28.766Z,1003.57
2023-05-22T00:02:28.822Z,1003.55
2023-05-22T00:03:28.788Z,1003.54
2023-05-22T00:04:28.766Z,1003.56
2023-05-22T00:05:28.817Z,1003.51
2023-05-22T00:06:28.767Z,1003.56
2023-05-22T00:07:28.764Z,1003.56
2023-05-22T00:08:31.784Z,1003.54
2023-05-22T00:10:28.795Z,1003.54
2023-05-22T00:11:28.769Z,1003.52
2023-05-22T00:12:29.340Z,1003.51
2023-05-22T00:13:28.772Z,1003.54
2023-05-22T00:14:28.768Z,1003.54
2023-05-22T00:15:28.780Z,1003.54
2023-05-22T00:16:29.279Z,1003.5
2023-05-22T00:17:32.838Z,1003.5
2023-05-22T00:18:35.800Z,1003.45
2023-05-22T00:19:35.156Z,1003.43
2023-05-22T00:20:28.770Z,1003.44
2023-05-22T00:21:28.950Z,1003.42
2023-05-22T00:22:28.762Z,1003.41
2023-05-22T00:23:28.886Z,1003.4
2023-05-22T00:24:28.803Z,1003.35
2023-05-22T00:25:28.767Z,1003.37
2023-05-22T00:26:28.987Z,1003.33
2023-05-22T00:27:29.000Z,1003.29
2023-05-22T00:28:29.035Z,1003.29
2023-05-22T00:29:29.010Z,1003.27
2023-05-22T00:30:28.971Z,1003.25
2023-05-22T00:31:29.059Z,1003.24
2023-05-22T00:32:28.843Z,1003.24
2023-05-22T00:33:29.055Z,1003.26
2023-05-22T00:34:28.794Z,1003.27
2023-05-22T00:35:28.768Z,1003.26
2023-05-22T00:36:28.799Z,1003.28
2023-05-22T00:37:29.355Z,1003.26
2023-05-22T00:38:33.601Z,1003.31
2023-05-22T00:39:35.907Z,1003.33
2023-05-22T00:40:35.196Z,1003.31
2023-05-22T00:41:28.824Z,1003.32
2023-05-22T00:42:28.828Z,1003.37
2023-05-22T00:43:28.768Z,1003.36
2023-05-22T00:44:28.770Z,1003.38
2023-05-22T00:45:28.773Z,1003.37
2023-05-22T00:46:28.799Z,1003.37
2023-05-22T00:47:28.827Z,1003.39
2023-05-22T00:48:28.795Z,1003.36
2023-05-22T00:49:28.774Z,1003.32
2023-05-22T00:50:28.758Z,1003.34
2023-05-22T00:51:28.818Z,1003.37
2023-05-22T00:52:28.769Z,1003.38
2023-05-22T00:53:28.778Z,1003.37
2023-05-22T00:54:28.777Z,1003.35
2023-05-22T00:55:28.776Z,1003.35
2023-05-22T00:56:28.784Z,1003.38
2023-05-22T00:57:28.768Z,1003.32
2023-05-22T00:58:29.408Z,1003.33
2023-05-22T00:59:32.765Z,1003.27
2023-05-22T01:00:35.980Z,1003.26
2023-05-22T01:01:35.242Z,1003.24
2023-05-22T01:02:28.893Z,1003.27
2023-05-22T01:03:29.925Z,1003.29
2023-05-22T01:05:28.768Z,1003.32
2023-05-22T01:06:28.782Z,1003.32
2023-05-22T01:07:28.769Z,1003.34
2023-05-22T01:08:28.786Z,1003.33
2023-05-22T01:09:28.798Z,1003.35
2023-05-22T01:10:28.790Z,1003.34
2023-05-22T01:11:28.777Z,1003.33
2023-05-22T01:12:28.767Z,1003.31
2023-05-22T01:13:28.780Z,1003.26
2023-05-22T01:14:28.769Z,1003.2
2023-05-22T01:15:28.764Z,1003.25
2023-05-22T01:16:28.786Z,1003.24
2023-05-22T01:17:28.828Z,1003.23
2023-05-22T01:18:28.781Z,1003.22
2023-05-22T01:19:29.556Z,1003.32
2023-05-22T01:20:33.217Z,1003.27
2023-05-22T01:21:36.115Z,1003.27
2023-05-22T01:22:35.373Z,1003.3
2023-05-22T01:23:28.777Z,1003.34
2023-05-22T01:24:28.913Z,1003.34
2023-05-22T01:25:28.772Z,1003.31
2023-05-22T01:26:28.777Z,1003.27
2023-05-22T01:27:28.856Z,1003.27
2023-05-22T01:28:28.766Z,1003.19
2023-05-22T01:29:28.773Z,1003.16
2023-05-22T01:30:28.768Z,1003.07
2023-05-22T01:31:28.785Z,1003.08
2023-05-22T01:32:28.829Z,1003.12
2023-05-22T01:33:28.856Z,1003.18
2023-05-22T01:34:28.764Z,1003.24
2023-05-22T01:35:28.777Z,1003.23
2023-05-22T01:36:28.796Z,1003.22
2023-05-22T01:37:28.797Z,1003.2
2023-05-22T01:38:28.797Z,1003.18
2023-05-22T01:39:28.762Z,1003.13
2023-05-22T01:40:29.587Z,1003.1
2023-05-22T01:41:33.176Z,1003.07
2023-05-22T01:42:36.216Z,1003.04
2023-05-22T01:43:35.579Z,1003.01
2023-05-22T01:44:28.788Z,1003
2023-05-22T01:45:28.809Z,1002.96
2023-05-22T01:46:28.869Z,1002.91
2023-05-22T01:47:28.818Z,1002.85
2023-05-22T01:48:28.817Z,1002.88
2023-05-22T01:49:28.776Z,1002.88
2023-05-22T01:50:28.777Z,1002.91
2023-05-22T01:51:28.817Z,1002.94
2023-05-22T01:52:28.791Z,1002.92
2023-05-22T01:53:28.787Z,1002.93
2023-05-22T01:54:28.780Z,1002.92
2023-05-22T01:55:28.772Z,1002.86
2023-05-22T01:56:28.777Z,1002.84
2023-05-22T01:57:28.774Z,1002.86
2023-05-22T01:58:28.772Z,1002.88
2023-05-22T01:59:28.768Z,1002.98
2023-05-22T02:00:28.774Z,1003.17
2023-05-22T02:01:29.799Z,1003.33
2023-05-22T02:02:33.271Z,1003.24
2023-05-22T02:03:36.325Z,1003.03
2023-05-22T02:04:35.652Z,1003.07
2023-05-22T02:05:28.788Z,1003.21
2023-05-22T02:06:28.785Z,1003.3
2023-05-22T02:07:28.771Z,1003.28
2023-05-22T02:08:28.812Z,1003.22
2023-05-22T02:09:28.777Z,1003.2
2023-05-22T02:10:28.771Z,1003.21
2023-05-22T02:11:28.771Z,1003.21
2023-05-22T02:12:28.771Z,1003.19
2023-05-22T02:13:28.807Z,1003.22
2023-05-22T02:14:28.781Z,1003.19
2023-05-22T02:15:28.915Z,1003.21
2023-05-22T02:16:28.854Z,1003.21
2023-05-22T02:17:28.852Z,1003.14
2023-05-22T02:18:28.814Z,1003.1
2023-05-22T02:19:28.863Z,1003.1
2023-05-22T02:20:28.780Z,1003.1
2023-05-22T02:21:28.772Z,1003.12
2023-05-22T02:22:29.712Z,1003.11
2023-05-22T02:23:33.525Z,1003.11
2023-05-22T02:24:36.368Z,1003.11
2023-05-22T02:25:35.721Z,1003.11
2023-05-22T02:26:28.772Z,1003.06
2023-05-22T02:27:28.778Z,1003.05
2023-05-22T02:28:28.772Z,1003.03
2023-05-22T02:29:28.785Z,1003.03
2023-05-22T02:30:28.774Z,1003.02
2023-05-22T02:31:28.779Z,1003.02
2023-05-22T02:32:28.779Z,1003.01
2023-05-22T02:33:28.780Z,1003
2023-05-22T02:34:28.778Z,1002.98
2023-05-22T02:35:28.776Z,1002.95
2023-05-22T02:36:28.830Z,1003
2023-05-22T02:37:28.941Z,1002.97
2023-05-22T02:38:28.779Z,1003.01
2023-05-22T02:39:28.772Z,1002.95
2023-05-22T02:40:28.875Z,1002.97
2023-05-22T02:41:28.806Z,1002.99
2023-05-22T02:42:28.781Z,1002.95
2023-05-22T02:43:28.781Z,1002.94
2023-05-22T02:44:30.097Z,1002.94
2023-05-22T02:45:33.665Z,1002.95
2023-05-22T02:46:35.870Z,1002.93
2023-05-22T02:48:28.777Z,1002.87
2023-05-22T02:49:28.784Z,1002.9
2023-05-22T02:50:28.789Z,1002.86
2023-05-22T02:51:28.771Z,1002.83
2023-05-22T02:52:28.788Z,1002.85
2023-05-22T02:53:28.785Z,1002.82
2023-05-22T02:54:28.774Z,1002.86
2023-05-22T02:55:28.773Z,1002.8
2023-05-22T02:56:28.757Z,1002.81
2023-05-22T02:57:28.779Z,1002.8
2023-05-22T02:58:28.769Z,1002.77
2023-05-22T02:59:28.781Z,1002.74
2023-05-22T03:00:28.771Z,1002.74
2023-05-22T03:01:28.813Z,1002.75
2023-05-22T03:02:28.823Z,1002.75
2023-05-22T03:03:28.807Z,1002.76
2023-05-22T03:04:28.772Z,1002.73
2023-05-22T03:05:30.178Z,1002.73
2023-05-22T03:06:33.685Z,1002.79
2023-05-22T03:07:35.948Z,1002.78
2023-05-22T03:09:28.805Z,1002.76
2023-05-22T03:10:28.765Z,1002.79
2023-05-22T03:11:28.782Z,1002.8
2023-05-22T03:12:28.800Z,1002.77
2023-05-22T03:13:28.773Z,1002.77
2023-05-22T03:14:28.780Z,1002.76
2023-05-22T03:15:28.772Z,1002.8
2023-05-22T03:16:28.860Z,1002.82
2023-05-22T03:17:28.803Z,1002.75
2023-05-22T03:18:31.769Z,1002.73
2023-05-22T03:20:28.782Z,1002.75
2023-05-22T03:21:28.778Z,1002.76
2023-05-22T03:22:28.769Z,1002.76
2023-05-22T03:23:28.768Z,1002.76
2023-05-22T03:24:28.770Z,1002.8
2023-05-22T03:25:28.765Z,1002.81
2023-05-22T03:26:30.208Z,1002.8
2023-05-22T03:27:34.128Z,1002.78
2023-05-22T03:28:36.033Z,1002.81
2023-05-22T03:30:28.860Z,1002.83
2023-05-22T03:31:28.781Z,1002.78
2023-05-22T03:32:28.782Z,1002.77
2023-05-22T03:33:28.840Z,1002.81
2023-05-22T03:34:28.774Z,1002.76
2023-05-22T03:35:28.802Z,1002.77
2023-05-22T03:36:29.944Z,1002.78
2023-05-22T03:37:28.772Z,1002.78
2023-05-22T03:38:28.766Z,1002.79
2023-05-22T03:39:28.783Z,1002.76
2023-05-22T03:40:28.785Z,1002.77
2023-05-22T03:41:28.770Z,1002.77
2023-05-22T03:42:28.769Z,1002.78
2023-05-22T03:43:28.772Z,1002.73
2023-05-22T03:44:28.787Z,1002.73
2023-05-22T03:45:28.800Z,1002.75
2023-05-22T03:46:28.796Z,1002.77
2023-05-22T03:47:30.645Z,1002.76
2023-05-22T03:48:33.693Z,1002.78
2023-05-22T03:49:36.145Z,1002.76
2023-05-22T03:51:28.785Z,1002.78
2023-05-22T03:52:28.768Z,1002.75
2023-05-22T03:53:28.782Z,1002.77
2023-05-22T03:54:28.814Z,1002.77
2023-05-22T03:55:28.802Z,1002.72
2023-05-22T03:56:28.768Z,1002.76
2023-05-22T03:57:28.778Z,1002.77
2023-05-22T03:58:28.799Z,1002.79
2023-05-22T03:59:28.770Z,1002.81
2023-05-22T04:00:29.763Z,1002.82
2023-05-22T04:01:28.766Z,1002.8
2023-05-22T04:02:28.832Z,1002.78
2023-05-22T04:03:28.825Z,1002.83
2023-05-22T04:04:28.771Z,1002.87
2023-05-22T04:05:28.863Z,1002.86
2023-05-22T04:06:28.771Z,1002.83
2023-05-22T04:07:28.774Z,1002.88
2023-05-22T04:08:30.502Z,1002.87
2023-05-22T04:09:34.192Z,1002.88
2023-05-22T04:10:35.703Z,1002.86
2023-05-22T04:12:28.766Z,1002.88
2023-05-22T04:13:28.789Z,1002.9
2023-05-22T04:14:28.765Z,1002.85
2023-05-22T04:15:28.770Z,1002.86
2023-05-22T04:16:28.949Z,1002.87
2023-05-22T04:17:28.802Z,1002.84
2023-05-22T04:18:28.798Z,1002.83
2023-05-22T04:19:28.864Z,1002.79
2023-05-22T04:20:28.758Z,1002.77
2023-05-22T04:21:28.764Z,1002.76
2023-05-22T04:22:28.792Z,1002.75
2023-05-22T04:23:28.785Z,1002.76
2023-05-22T04:24:28.768Z,1002.79
2023-05-22T04:25:28.788Z,1002.8
2023-05-22T04:26:28.774Z,1002.8
2023-05-22T04:27:28.762Z,1002.81
2023-05-22T04:28:28.782Z,1002.83
2023-05-22T04:29:30.667Z,1002.83
2023-05-22T04:30:34.236Z,1002.8
2023-05-22T04:31:36.367Z,1002.78
2023-05-22T04:33:28.794Z,1002.79
2023-05-22T04:34:28.765Z,1002.81
2023-05-22T04:35:28.763Z,1002.84
2023-05-22T04:36:28.771Z,1002.81
2023-05-22T04:37:28.948Z,1002.84
2023-05-22T04:38:28.764Z,1002.8
2023-05-22T04:39:28.767Z,1002.84
2023-05-22T04:40:28.758Z,1002.86
2023-05-22T04:41:28.772Z,1002.86
2023-05-22T04:42:28.780Z,1002.83
2023-05-22T04:43:28.845Z,1002.87
2023-05-22T04:44:28.764Z,1002.88
2023-05-22T04:45:28.989Z,1002.85
2023-05-22T04:46:28.887Z,1002.86
2023-05-22T04:47:28.922Z,1002.85
2023-05-22T04:48:28.769Z,1002.83
2023-05-22T04:49:28.796Z,1002.86
2023-05-22T04:50:30.730Z,1002.84
2023-05-22T04:51:33.732Z,1002.85
2023-05-22T04:52:36.484Z,1002.83
2023-05-22T04:54:28.779Z,1002.86
2023-05-22T04:55:28.764Z,1002.87
2023-05-22T04:56:37.771Z,1002.85
2023-05-22T04:58:28.758Z,1002.87
2023-05-22T04:59:28.770Z,1002.85
2023-05-22T05:00:28.769Z,1002.85
2023-05-22T05:01:29.954Z,1002.84
2023-05-22T05:02:28.777Z,1002.84
2023-05-22T05:03:28.788Z,1002.86
2023-05-22T05:04:28.858Z,1002.85
2023-05-22T05:05:28.774Z,1002.85
2023-05-22T05:06:28.768Z,1002.85
2023-05-22T05:07:28.779Z,1002.81
2023-05-22T05:08:28.931Z,1002.85
2023-05-22T05:09:28.754Z,1002.87
2023-05-22T05:10:28.766Z,1002.85
2023-05-22T05:11:30.751Z,1002.89
2023-05-22T05:12:33.775Z,1002.85
2023-05-22T05:13:36.506Z,1002.85
2023-05-22T05:15:28.784Z,1002.86
2023-05-22T05:16:28.785Z,1002.86
2023-05-22T05:17:28.837Z,1002.86
2023-05-22T05:18:28.760Z,1002.86
2023-05-22T05:19:28.841Z,1002.86
2023-05-22T05:20:28.779Z,1002.86
2023-05-22T05:21:28.764Z,1002.86
2023-05-22T05:22:28.762Z,1002.86
2023-05-22T05:23:28.798Z,1002.86
2023-05-22T05:24:28.787Z,1002.86
2023-05-22T05:25:28.754Z,1002.86
2023-05-22T05:26:28.941Z,1002.86
2023-05-22T05:27:28.820Z,1002.86
2023-05-22T05:28:28.876Z,1002.86
2023-05-22T05:29:28.975Z,1002.86
2023-05-22T05:30:29.051Z,1002.85
2023-05-22T05:31:29.010Z,1002.84
2023-05-22T05:32:30.856Z,1002.84
2023-05-22T05:33:33.903Z,1002.84
2023-05-22T05:34:36.618Z,1002.83
2023-05-22T05:36:28.782Z,1002.86
2023-05-22T05:37:28.766Z,1002.8
2023-05-22T05:38:29.044Z,1002.84
2023-05-22T05:39:28.774Z,1002.83
2023-05-22T05:40:29.244Z,1002.86
2023-05-22T05:41:28.761Z,1002.83
2023-05-22T05:42:28.817Z,1002.86
2023-05-22T05:43:28.815Z,1002.85
2023-05-22T05:44:28.809Z,1002.87
2023-05-22T05:45:28.778Z,1002.86
2023-05-22T05:46:28.790Z,1002.87
2023-05-22T05:47:28.795Z,1002.89
2023-05-22T05:48:28.797Z,1002.87
2023-05-22T05:49:28.881Z,1002.85
2023-05-22T05:50:28.781Z,1002.87
2023-05-22T05:51:28.767Z,1002.87
2023-05-22T05:52:28.781Z,1002.91
2023-05-22T05:53:30.996Z,1002.87
2023-05-22T05:54:34.062Z,1002.87
2023-05-22T05:55:34.915Z,1002.9
2023-05-22T05:57:28.779Z,1002.87
2023-05-22T05:58:28.799Z,1002.89
2023-05-22T05:59:28.773Z,1002.9
2023-05-22T06:00:28.772Z,1002.89
2023-05-22T06:01:28.804Z,1002.87
2023-05-22T06:02:28.783Z,1002.9
2023-05-22T06:04:28.783Z,1002.92
2023-05-22T06:05:28.820Z,1002.86
2023-05-22T06:06:28.781Z,1002.86
2023-05-22T06:07:28.776Z,1002.84
2023-05-22T06:08:28.788Z,1002.86
2023-05-22T06:09:28.885Z,1002.82
2023-05-22T06:10:28.942Z,1002.81
2023-05-22T06:11:28.832Z,1002.81
2023-05-22T06:12:28.774Z,1002.81
2023-05-22T06:13:28.791Z,1002.84
2023-05-22T06:14:28.834Z,1002.86
2023-05-22T06:15:31.674Z,1002.85
2023-05-22T06:16:34.793Z,1002.86
2023-05-22T06:17:35.947Z,1002.82
2023-05-22T06:19:29.011Z,1002.8
2023-05-22T06:20:29.112Z,1002.81
2023-05-22T06:21:29.179Z,1002.82
2023-05-22T06:22:29.077Z,1002.83
2023-05-22T06:23:28.864Z,1002.81
2023-05-22T06:24:28.830Z,1002.84
2023-05-22T06:25:29.091Z,1002.82
2023-05-22T06:26:28.863Z,1002.85
2023-05-22T06:27:28.781Z,1002.86
2023-05-22T06:28:28.807Z,1002.82
2023-05-22T06:29:28.777Z,1002.88
2023-05-22T06:30:39.894Z,1002.85
2023-05-22T06:32:28.897Z,1002.86
2023-05-22T06:33:28.866Z,1002.85
2023-05-22T06:34:28.817Z,1002.83
2023-05-22T06:35:28.916Z,1002.84
2023-05-22T06:36:31.740Z,1002.85
2023-05-22T06:37:34.586Z,1002.85
2023-05-22T06:38:35.690Z,1002.9
2023-05-22T06:39:37.216Z,1002.88
2023-05-22T06:40:28.843Z,1002.85
2023-05-22T06:41:28.786Z,1002.88
2023-05-22T06:42:28.801Z,1002.89
2023-05-22T06:43:28.768Z,1002.85
2023-05-22T06:44:28.762Z,1002.86
2023-05-22T06:45:28.781Z,1002.85
2023-05-22T06:46:28.816Z,1002.86
2023-05-22T06:47:28.792Z,1002.85
2023-05-22T06:48:28.776Z,1002.83
2023-05-22T06:49:28.801Z,1002.82
2023-05-22T06:50:28.830Z,1002.85
2023-05-22T06:51:28.783Z,1002.84
2023-05-22T06:52:28.766Z,1002.81
2023-05-22T06:53:28.796Z,1002.86
2023-05-22T06:54:28.794Z,1002.85
2023-05-22T06:55:28.884Z,1002.85
2023-05-22T06:56:28.921Z,1002.85
2023-05-22T06:57:31.819Z,1002.82
2023-05-22T06:58:34.326Z,1002.82
2023-05-22T06:59:36.041Z,1002.8
2023-05-22T07:01:28.993Z,1002.84
2023-05-22T07:02:28.852Z,1002.83
2023-05-22T07:03:29.154Z,1002.88
2023-05-22T07:04:29.203Z,1002.88
2023-05-22T07:05:29.176Z,1002.87
2023-05-22T07:06:28.777Z,1002.87
2023-05-22T07:07:28.790Z,1002.88
2023-05-22T07:08:32.780Z,1002.9
2023-05-22T07:10:28.800Z,1002.85
2023-05-22T07:11:28.775Z,1002.89
2023-05-22T07:12:28.764Z,1002.8
2023-05-22T07:13:28.776Z,1002.8
2023-05-22T07:14:28.784Z,1002.77
2023-05-22T07:15:28.792Z,1002.8
2023-05-22T07:16:28.798Z,1002.85
2023-05-22T07:17:29.190Z,1002.85
2023-05-22T07:18:31.956Z,1002.86
2023-05-22T07:19:34.607Z,1002.88
2023-05-22T07:20:36.177Z,1002.9
2023-05-22T07:22:28.772Z,1002.83
2023-05-22T07:23:28.756Z,1002.83
2023-05-22T07:24:28.781Z,1002.83
2023-05-22T07:25:28.830Z,1002.83
2023-05-22T07:26:31.784Z,1002.85
2023-05-22T07:28:28.786Z,1002.84
2023-05-22T07:29:28.787Z,1002.85
2023-05-22T07:30:28.844Z,1002.87
2023-05-22T07:31:28.797Z,1002.85
2023-05-22T07:32:28.785Z,1002.82
2023-05-22T07:33:28.776Z,1002.84
2023-05-22T07:34:29.860Z,1002.83
2023-05-22T07:35:28.857Z,1002.83
2023-05-22T07:36:28.761Z,1002.84
2023-05-22T07:37:28.769Z,1002.85
2023-05-22T07:38:29.096Z,1002.82
2023-05-22T07:39:32.012Z,1002.81
2023-05-22T07:40:34.502Z,1002.81
2023-05-22T07:41:36.223Z,1002.79
2023-05-22T07:43:28.997Z,1002.78
2023-05-22T07:44:28.909Z,1002.8
2023-05-22T07:45:29.042Z,1002.81
2023-05-22T07:46:28.945Z,1002.87
2023-05-22T07:47:29.114Z,1002.91
2023-05-22T07:48:29.066Z,1002.91
2023-05-22T07:49:28.965Z,1002.93
2023-05-22T07:50:29.114Z,1002.95
2023-05-22T07:51:28.773Z,1002.95
2023-05-22T07:52:28.780Z,1002.91
2023-05-22T07:53:28.810Z,1002.92
2023-05-22T07:54:28.766Z,1002.93
2023-05-22T07:55:28.774Z,1002.93
2023-05-22T07:56:28.862Z,1002.91
2023-05-22T07:57:28.767Z,1002.88
2023-05-22T07:58:28.760Z,1002.87
2023-05-22T07:59:29.333Z,1002.88
2023-05-22T08:00:32.353Z,1002.87
2023-05-22T08:01:34.653Z,1002.9
2023-05-22T08:02:36.570Z,1002.85
2023-05-22T08:04:28.847Z,1002.89
2023-05-22T08:05:28.773Z,1002.9
2023-05-22T08:06:28.837Z,1002.89
2023-05-22T08:07:28.812Z,1002.9
2023-05-22T08:08:32.197Z,1002.94
2023-05-22T08:09:28.951Z,1002.94
2023-05-22T08:10:47.548Z,1002.98
2023-05-22T08:12:28.770Z,1002.99
2023-05-22T08:13:28.757Z,1003
2023-05-22T08:14:28.878Z,1003.01
2023-05-22T08:15:28.764Z,1003.01
2023-05-22T08:16:28.838Z,1003.01
2023-05-22T08:17:28.925Z,1003
2023-05-22T08:18:28.769Z,1003.03
2023-05-22T08:19:28.809Z,1003.02
2023-05-22T08:20:28.896Z,1003.04
2023-05-22T08:21:32.366Z,1003.06
2023-05-22T08:22:34.782Z,1003.03
2023-05-22T08:23:36.549Z,1003.08
2023-05-22T08:25:28.785Z,1003.06
2023-05-22T08:26:30.099Z,1003.07
2023-05-22T08:27:28.778Z,1003.03
2023-05-22T08:28:28.935Z,1003.07
2023-05-22T08:29:29.009Z,1003.03
2023-05-22T08:30:29.073Z,1003.03
2023-05-22T08:31:28.781Z,1003.02
2023-05-22T08:32:31.899Z,1003.01
2023-05-22T08:34:29.135Z,1002.98
2023-05-22T08:35:28.772Z,1003.04
2023-05-22T08:36:28.788Z,1003.01
2023-05-22T08:37:28.813Z,1003
2023-05-22T08:38:28.759Z,1003.01
2023-05-22T08:39:28.761Z,1003.01
2023-05-22T08:40:28.768Z,1002.99
2023-05-22T08:41:28.944Z,1002.98
2023-05-22T08:42:32.474Z,1002.92
2023-05-22T08:43:34.890Z,1002.95
2023-05-22T08:44:36.611Z,1002.94
2023-05-22T08:46:29.237Z,1002.9
2023-05-22T08:47:29.006Z,1002.86
2023-05-22T08:48:28.761Z,1002.88
2023-05-22T08:49:28.769Z,1002.89
2023-05-22T08:50:28.764Z,1002.92
2023-05-22T08:51:28.790Z,1002.95
2023-05-22T08:52:28.764Z,1002.88
2023-05-22T08:53:28.790Z,1002.9
2023-05-22T08:54:28.766Z,1002.9
2023-05-22T08:55:28.773Z,1002.92
2023-05-22T08:56:32.069Z,1002.96
2023-05-22T08:58:28.799Z,1002.91
2023-05-22T08:59:28.811Z,1002.92
2023-05-22T09:00:28.761Z,1002.89
2023-05-22T09:01:29.085Z,1002.88
2023-05-22T09:02:29.144Z,1002.86
2023-05-22T09:03:32.716Z,1002.87
2023-05-22T09:04:34.968Z,1002.83
2023-05-22T09:05:35.551Z,1002.85
2023-05-22T09:06:29.030Z,1002.84
2023-05-22T09:07:28.795Z,1002.86
2023-05-22T09:08:28.784Z,1002.88
2023-05-22T09:09:28.768Z,1002.87
2023-05-22T09:10:28.771Z,1002.82
2023-05-22T09:11:28.768Z,1002.87
2023-05-22T09:12:28.759Z,1002.88
2023-05-22T09:13:28.802Z,1002.9
2023-05-22T09:14:28.777Z,1002.93
2023-05-22T09:15:28.788Z,1002.95
2023-05-22T09:16:28.775Z,1002.99
2023-05-22T09:17:28.979Z,1002.97
2023-05-22T09:18:28.765Z,1002.93
2023-05-22T09:19:28.833Z,1002.93
2023-05-22T09:20:28.775Z,1002.94
2023-05-22T09:21:32.066Z,1002.92
2023-05-22T09:23:29.281Z,1002.93
2023-05-22T09:24:32.564Z,1002.95
2023-05-22T09:25:35.022Z,1002.89
2023-05-22T09:26:35.682Z,1002.87
2023-05-22T09:27:28.776Z,1002.86
2023-05-22T09:28:28.773Z,1002.84
2023-05-22T09:29:28.769Z,1002.84
2023-05-22T09:30:28.800Z,1002.88
2023-05-22T09:31:28.792Z,1002.9
2023-05-22T09:32:28.795Z,1002.96
2023-05-22T09:33:28.768Z,1002.92
2023-05-22T09:34:28.761Z,1002.93
2023-05-22T09:35:28.788Z,1002.99
2023-05-22T09:36:28.770Z,1002.94
2023-05-22T09:37:28.769Z,1002.96
2023-05-22T09:38:28.786Z,1002.97
2023-05-22T09:39:28.791Z,1002.95
2023-05-22T09:40:28.798Z,1002.94
2023-05-22T09:41:28.767Z,1002.93
2023-05-22T09:42:28.765Z,1002.91
2023-05-22T09:43:28.763Z,1002.95
2023-05-22T09:44:28.776Z,1002.84
2023-05-22T09:45:29.300Z,1002.86
2023-05-22T09:46:32.740Z,1002.84
2023-05-22T09:47:35.714Z,1002.77
2023-05-22T09:48:35.132Z,1002.8
2023-05-22T09:49:28.805Z,1002.82
2023-05-22T09:50:28.779Z,1002.82
2023-05-22T09:51:28.776Z,1002.78
2023-05-22T09:52:28.772Z,1002.77
2023-05-22T09:53:28.775Z,1002.79
2023-05-22T09:54:28.785Z,1002.77
2023-05-22T09:55:28.782Z,1002.78
2023-05-22T09:56:39.527Z,1002.77
2023-05-22T09:58:28.783Z,1002.78
2023-05-22T09:59:28.775Z,1002.79
2023-05-22T10:00:28.797Z,1002.78
2023-05-22T10:01:28.819Z,1002.8
2023-05-22T10:02:28.789Z,1002.84
2023-05-22T10:03:28.781Z,1002.83
2023-05-22T10:04:28.822Z,1002.87
2023-05-22T10:05:28.791Z,1002.82
2023-05-22T10:06:29.356Z,1002.87
2023-05-22T10:07:32.741Z,1002.81
2023-05-22T10:08:35.773Z,1002.83
2023-05-22T10:09:35.198Z,1002.82
2023-05-22T10:10:28.809Z,1002.85
2023-05-22T10:11:28.800Z,1002.79
2023-05-22T10:12:28.757Z,1002.82
2023-05-22T10:13:28.766Z,1002.84
2023-05-22T10:14:31.781Z,1002.86
2023-05-22T10:16:28.821Z,1002.83
2023-05-22T10:17:28.788Z,1002.81
2023-05-22T10:18:28.780Z,1002.84
2023-05-22T10:19:28.777Z,1002.79
2023-05-22T10:20:28.780Z,1002.8
2023-05-22T10:21:28.780Z,1002.78
2023-05-22T10:22:28.781Z,1002.8
2023-05-22T10:23:28.776Z,1002.76
2023-05-22T10:24:28.781Z,1002.77
2023-05-22T10:25:28.770Z,1002.81
2023-05-22T10:26:28.876Z,1002.81
2023-05-22T10:27:29.433Z,1002.79
2023-05-22T10:28:32.842Z,1002.72
2023-05-22T10:29:35.907Z,1002.76
2023-05-22T10:30:35.373Z,1002.74
2023-05-22T10:31:28.818Z,1002.71
2023-05-22T10:32:28.919Z,1002.77
2023-05-22T10:33:28.800Z,1002.79
2023-05-22T10:34:28.787Z,1002.78
2023-05-22T10:35:28.760Z,1002.75
2023-05-22T10:36:28.787Z,1002.72
2023-05-22T10:37:28.780Z,1002.7
2023-05-22T10:38:28.804Z,1002.71
2023-05-22T10:39:28.778Z,1002.67
2023-05-22T10:40:28.806Z,1002.68
2023-05-22T10:41:28.794Z,1002.71
2023-05-22T10:42:28.776Z,1002.72
2023-05-22T10:43:28.772Z,1002.71
2023-05-22T10:44:28.811Z,1002.68
2023-05-22T10:45:28.961Z,1002.7
2023-05-22T10:46:28.974Z,1002.65
2023-05-22T10:47:28.806Z,1002.61
2023-05-22T10:48:29.594Z,1002.67
2023-05-22T10:49:33.091Z,1002.65
2023-05-22T10:50:36.174Z,1002.67
2023-05-22T10:51:35.456Z,1002.67
2023-05-22T10:52:28.782Z,1002.65
2023-05-22T10:53:28.927Z,1002.68
2023-05-22T10:54:28.776Z,1002.66
2023-05-22T10:55:28.767Z,1002.67
2023-05-22T10:56:28.818Z,1002.71
2023-05-22T10:57:28.851Z,1002.68
2023-05-22T10:58:28.789Z,1002.72
2023-05-22T10:59:28.852Z,1002.69
2023-05-22T11:00:28.769Z,1002.68
2023-05-22T11:01:28.869Z,1002.72
2023-05-22T11:02:29.194Z,1002.7
2023-05-22T11:03:29.016Z,1002.7
2023-05-22T11:04:29.042Z,1002.65
2023-05-22T11:05:28.777Z,1002.67
2023-05-22T11:06:28.789Z,1002.67
2023-05-22T11:07:28.772Z,1002.68
2023-05-22T11:08:28.774Z,1002.63
2023-05-22T11:09:29.691Z,1002.65
2023-05-22T11:10:33.065Z,1002.64
2023-05-22T11:11:36.030Z,1002.62
2023-05-22T11:12:35.519Z,1002.57
2023-05-22T11:13:38.549Z,1002.63
2023-05-22T11:15:28.776Z,1002.62
2023-05-22T11:16:28.814Z,1002.58
2023-05-22T11:17:28.810Z,1002.54
2023-05-22T11:18:28.937Z,1002.58
2023-05-22T11:19:29.095Z,1002.55
2023-05-22T11:20:28.924Z,1002.52
2023-05-22T11:21:28.980Z,1002.55
2023-05-22T11:22:28.991Z,1002.5
2023-05-22T11:23:28.886Z,1002.49
2023-05-22T11:24:28.805Z,1002.49
2023-05-22T11:25:28.778Z,1002.47
2023-05-22T11:26:31.782Z,1002.47
2023-05-22T11:28:28.796Z,1002.47
2023-05-22T11:29:28.765Z,1002.47
2023-05-22T11:30:29.789Z,1002.43
2023-05-22T11:31:33.202Z,1002.41
2023-05-22T11:32:36.187Z,1002.4
2023-05-22T11:33:35.652Z,1002.4
2023-05-22T11:34:28.774Z,1002.42
2023-05-22T11:35:28.815Z,1002.4
2023-05-22T11:36:28.778Z,1002.42
2023-05-22T11:37:28.772Z,1002.33
2023-05-22T11:38:28.773Z,1002.34
2023-05-22T11:39:28.791Z,1002.36
2023-05-22T11:40:28.816Z,1002.28
2023-05-22T11:41:29.313Z,1002.31
2023-05-22T11:42:28.767Z,1002.26
2023-05-22T11:43:28.763Z,1002.26
2023-05-22T11:44:28.909Z,1002.28
2023-05-22T11:45:28.887Z,1002.23
2023-05-22T11:46:28.793Z,1002.2
2023-05-22T11:47:28.819Z,1002.16
2023-05-22T11:48:28.792Z,1002.19
2023-05-22T11:49:28.783Z,1002.19
2023-05-22T11:50:42.127Z,1002.15
2023-05-22T11:51:29.908Z,1002.15
2023-05-22T11:52:32.785Z,1002.13
2023-05-22T11:53:36.225Z,1002.1
2023-05-22T11:54:37.904Z,1002.1
2023-05-22T11:55:28.784Z,1002.07
2023-05-22T11:56:28.760Z,1002.11
2023-05-22T11:57:28.778Z,1002.08
2023-05-22T11:58:28.788Z,1002.11
2023-05-22T11:59:28.819Z,1002.08
2023-05-22T12:00:28.844Z,1002.08
2023-05-22T12:01:28.775Z,1002.06
2023-05-22T12:02:28.804Z,1002.02
2023-05-22T12:03:28.817Z,1002.07
2023-05-22T12:04:28.785Z,1002.01
2023-05-22T12:05:28.774Z,1002
2023-05-22T12:06:28.785Z,1002
2023-05-22T12:07:28.778Z,1002
2023-05-22T12:08:28.767Z,1002.03
2023-05-22T12:09:28.801Z,1001.98
2023-05-22T12:10:28.785Z,1001.94
2023-05-22T12:11:28.792Z,1001.96
2023-05-22T12:12:29.964Z,1001.93
2023-05-22T12:13:33.515Z,1001.9
2023-05-22T12:14:36.635Z,1001.89
2023-05-22T12:15:35.918Z,1001.93
2023-05-22T12:16:28.777Z,1001.95
2023-05-22T12:17:28.807Z,1002
2023-05-22T12:18:28.795Z,1001.99
2023-05-22T12:19:28.800Z,1001.99
2023-05-22T12:20:28.770Z,1002.07
2023-05-22T12:21:28.783Z,1002.04
2023-05-22T12:22:28.772Z,1002.02
2023-05-22T12:23:28.787Z,1002.04
2023-05-22T12:24:28.773Z,1002.05
2023-05-22T12:25:28.789Z,1002.06
2023-05-22T12:26:28.758Z,1002.08
2023-05-22T12:27:29.623Z,1002.1
2023-05-22T12:28:28.769Z,1002.12
2023-05-22T12:29:28.770Z,1002.1
2023-05-22T12:30:28.767Z,1002.11
2023-05-22T12:31:28.776Z,1002.11
2023-05-22T12:32:28.934Z,1002.16
2023-05-22T12:33:30.014Z,1002.14
2023-05-22T12:34:33.596Z,1002.19
2023-05-22T12:35:34.982Z,1002.15
2023-05-22T12:37:28.770Z,1002.17
2023-05-22T12:38:28.924Z,1002.17
2023-05-22T12:39:29.014Z,1002.15
2023-05-22T12:40:28.806Z,1002.14
2023-05-22T12:41:28.900Z,1002.18
2023-05-22T12:42:28.779Z,1002.16